createdAt,value
2022-07-25T00:00:40.105Z,28.50
2022-07-25T00:03:10.761Z,28.60
2022-07-25T00:05:39.916Z,28.60
2022-07-25T00:08:08.393Z,28.50
2022-07-25T00:10:36.883Z,28.50
2022-07-25T00:13:06.952Z,28.50
2022-07-25T00:15:35.501Z,28.50
2022-07-25T00:18:03.935Z,28.60
2022-07-25T00:20:32.455Z,28.50
2022-07-25T00:23:00.856Z,28.50
2022-07-25T00:25:29.523Z,28.50
2022-07-25T00:27:57.914Z,28.40
2022-07-25T00:30:27.923Z,28.50
2022-07-25T00:32:56.374Z,28.40
2022-07-25T00:35:24.813Z,28.30
2022-07-25T00:37:53.246Z,28.30
2022-07-25T00:40:21.945Z,28.30
2022-07-25T00:42:50.421Z,28.20
2022-07-25T00:45:18.929Z,28.20
2022-07-25T00:47:49.147Z,28.20
2022-07-25T00:50:17.805Z,28.10
2022-07-25T00:52:46.616Z,28.10
2022-07-25T00:55:15.401Z,28.10
2022-07-25T00:57:44.015Z,28.10
2022-07-25T01:00:15.663Z,28.10
2022-07-25T01:02:44.601Z,28.10
2022-07-25T01:05:14.671Z,28.10
2022-07-25T01:07:43.511Z,28.10
2022-07-25T01:10:11.946Z,27.90
2022-07-25T01:12:51.031Z,27.90
2022-07-25T01:15:19.766Z,27.90
2022-07-25T01:17:48.856Z,27.90
2022-07-25T01:20:19.260Z,28.00
2022-07-25T01:22:48.553Z,28.00
2022-07-25T01:25:17.713Z,28.00
2022-07-25T01:27:51.402Z,28.00
2022-07-25T01:30:24.294Z,27.90
2022-07-25T01:32:53.128Z,27.90
2022-07-25T01:35:23.169Z,27.80
2022-07-25T01:37:51.794Z,27.70
2022-07-25T01:40:20.200Z,27.70
2022-07-25T01:42:48.815Z,27.60
2022-07-25T01:45:17.261Z,27.60
2022-07-25T01:47:45.951Z,27.70
2022-07-25T01:50:14.424Z,27.60
2022-07-25T01:52:45.025Z,27.60
2022-07-25T01:55:13.805Z,27.60
2022-07-25T01:57:42.667Z,27.50
2022-07-25T02:00:18.858Z,27.50
2022-07-25T02:02:47.864Z,27.60
2022-07-25T02:05:16.739Z,27.30
2022-07-25T02:07:46.743Z,27.30
2022-07-25T02:10:15.199Z,27.30
2022-07-25T02:12:43.564Z,27.30
2022-07-25T02:15:12.895Z,27.20
2022-07-25T02:17:41.476Z,27.20
2022-07-25T02:20:10.973Z,27.20
2022-07-25T02:22:38.851Z,27.20
2022-07-25T02:25:09.298Z,27.20
2022-07-25T02:27:37.060Z,27.30
2022-07-25T02:30:06.244Z,27.20
2022-07-25T02:32:34.058Z,27.20
2022-07-25T02:35:02.047Z,27.20
2022-07-25T02:37:29.883Z,27.20
2022-07-25T02:39:57.710Z,27.10
2022-07-25T02:42:26.999Z,27.10
2022-07-25T02:44:54.879Z,27.00
2022-07-25T02:47:22.649Z,27.10
2022-07-25T02:49:50.549Z,27.00
2022-07-25T02:52:18.411Z,27.10
2022-07-25T02:54:46.359Z,27.20
2022-07-25T02:57:14.139Z,27.20
2022-07-25T02:59:43.459Z,27.10
2022-07-25T03:02:11.249Z,27.10
2022-07-25T03:04:39.191Z,27.20
2022-07-25T03:07:07.660Z,27.10
2022-07-25T03:09:36.442Z,27.10
2022-07-25T03:12:04.928Z,27.10
2022-07-25T03:14:32.851Z,27.10
2022-07-25T03:17:02.094Z,27.10
2022-07-25T03:19:29.937Z,27.10
2022-07-25T03:21:57.665Z,27.10
2022-07-25T03:24:27.885Z,27.00
2022-07-25T03:26:56.507Z,26.90
2022-07-25T03:29:24.251Z,26.80
2022-07-25T03:31:52.062Z,26.80
2022-07-25T03:34:21.537Z,26.80
2022-07-25T03:36:49.468Z,26.80
2022-07-25T03:39:17.445Z,26.70
2022-07-25T03:41:45.538Z,26.70
2022-07-25T03:44:13.436Z,26.60
2022-07-25T03:46:41.140Z,26.70
2022-07-25T03:49:09.058Z,26.80
2022-07-25T03:51:38.219Z,26.80
2022-07-25T03:54:07.063Z,26.80
2022-07-25T03:56:43.631Z,26.80
2022-07-25T03:59:13.482Z,26.80
2022-07-25T04:01:42.203Z,26.70
2022-07-25T04:04:10.611Z,26.70
2022-07-25T04:06:40.824Z,26.70
2022-07-25T04:09:10.434Z,26.70
2022-07-25T04:11:38.576Z,26.80
2022-07-25T04:14:07.211Z,26.80
2022-07-25T04:16:35.192Z,26.80
2022-07-25T04:19:06.306Z,26.70
2022-07-25T04:21:34.575Z,26.70
2022-07-25T04:24:04.296Z,26.60
2022-07-25T04:26:32.417Z,26.60
2022-07-25T04:29:04.279Z,26.70
2022-07-25T04:31:32.882Z,26.70
2022-07-25T04:34:00.560Z,26.60
2022-07-25T04:36:28.478Z,26.70
2022-07-25T04:38:56.249Z,26.50
2022-07-25T04:41:25.529Z,26.60
2022-07-25T04:43:53.507Z,26.60
2022-07-25T04:46:22.005Z,26.60
2022-07-25T04:48:50.822Z,26.70
2022-07-25T04:51:19.168Z,26.60
2022-07-25T04:53:47.249Z,26.60
2022-07-25T04:56:15.048Z,26.60
2022-07-25T04:58:44.622Z,26.60
2022-07-25T05:01:12.410Z,26.80
2022-07-25T05:03:40.182Z,26.80
2022-07-25T05:06:08.487Z,26.80
2022-07-25T05:08:36.307Z,26.80
2022-07-25T05:11:04.269Z,26.90
2022-07-25T05:13:32.053Z,26.80
2022-07-25T05:16:01.920Z,26.70
2022-07-25T05:18:29.788Z,26.80
2022-07-25T05:20:57.498Z,26.80
2022-07-25T05:23:25.246Z,26.70
2022-07-25T05:25:53.037Z,26.70
2022-07-25T05:28:20.712Z,26.60
2022-07-25T05:30:48.401Z,26.70
2022-07-25T05:33:17.701Z,26.80
2022-07-25T05:35:45.367Z,26.90
2022-07-25T05:38:13.173Z,26.90
2022-07-25T05:40:40.822Z,26.80
2022-07-25T05:43:09.258Z,26.80
2022-07-25T05:45:36.936Z,26.80
2022-07-25T05:48:04.989Z,26.80
2022-07-25T05:50:34.133Z,26.80
2022-07-25T05:53:02.075Z,26.80
2022-07-25T05:55:29.832Z,26.90
2022-07-25T05:57:58.055Z,27.10
2022-07-25T06:00:26.150Z,27.20
2022-07-25T06:02:54.660Z,27.30
2022-07-25T06:05:22.579Z,27.30
2022-07-25T06:07:51.711Z,27.40
2022-07-25T06:10:19.701Z,27.30
2022-07-25T06:12:47.570Z,27.30
2022-07-25T06:15:22.810Z,27.50
2022-07-25T06:17:54.907Z,27.60
2022-07-25T06:20:24.158Z,27.60
2022-07-25T06:22:53.986Z,27.60
2022-07-25T06:25:22.264Z,27.60
2022-07-25T06:27:50.336Z,27.70
2022-07-25T06:30:20.560Z,27.70
2022-07-25T06:32:49.741Z,27.70
2022-07-25T06:35:18.222Z,27.70
2022-07-25T06:37:46.807Z,27.80
2022-07-25T06:40:16.616Z,27.80
2022-07-25T06:42:46.068Z,27.90
2022-07-25T06:45:15.507Z,28.00
2022-07-25T06:47:45.115Z,28.10
2022-07-25T06:50:16.066Z,28.10
2022-07-25T06:52:44.292Z,28.10
2022-07-25T06:55:13.803Z,28.10
2022-07-25T06:57:43.747Z,28.10
2022-07-25T07:00:13.994Z,28.20
2022-07-25T07:02:52.520Z,28.40
2022-07-25T07:05:22.289Z,28.40
2022-07-25T07:07:50.691Z,28.40
2022-07-25T07:10:19.402Z,28.40
2022-07-25T07:12:49.492Z,28.40
2022-07-25T07:15:18.572Z,28.50
2022-07-25T07:17:46.661Z,28.60
2022-07-25T07:20:14.771Z,28.70
2022-07-25T07:22:46.873Z,28.70
2022-07-25T07:25:16.839Z,28.60
2022-07-25T07:27:45.681Z,28.60
2022-07-25T07:30:16.864Z,28.70
2022-07-25T07:32:48.391Z,28.80
2022-07-25T07:35:17.001Z,28.90
2022-07-25T07:37:45.722Z,28.90
2022-07-25T07:40:17.734Z,28.90
2022-07-25T07:42:48.567Z,28.90
2022-07-25T07:45:20.442Z,29.00
2022-07-25T07:47:49.435Z,29.10
2022-07-25T07:50:19.003Z,29.10
2022-07-25T07:52:47.343Z,29.20
2022-07-25T07:55:34.019Z,29.30
2022-07-25T07:58:02.554Z,29.40
2022-07-25T08:00:36.550Z,29.50
2022-07-25T08:03:07.032Z,29.60
2022-07-25T08:05:38.993Z,29.60
2022-07-25T08:08:09.125Z,29.70
2022-07-25T08:10:39.861Z,29.70
2022-07-25T08:13:15.541Z,29.80
2022-07-25T08:15:47.042Z,29.80
2022-07-25T08:18:17.014Z,29.90
2022-07-25T08:20:47.091Z,29.80
2022-07-25T08:23:15.689Z,29.80
2022-07-25T08:25:44.569Z,29.90
2022-07-25T08:28:13.009Z,30.00
2022-07-25T08:30:42.478Z,30.00
2022-07-25T08:33:13.939Z,30.10
2022-07-25T08:35:46.128Z,30.20
2022-07-25T08:38:14.478Z,30.20
2022-07-25T08:40:42.561Z,30.30
2022-07-25T08:43:13.392Z,30.40
2022-07-25T08:45:44.619Z,30.30
2022-07-25T08:48:14.660Z,30.20
2022-07-25T08:50:44.362Z,30.30
2022-07-25T08:53:32.672Z,30.30
2022-07-25T08:56:05.322Z,30.30
2022-07-25T08:58:38.387Z,30.30
2022-07-25T09:01:07.520Z,30.40
2022-07-25T09:03:37.379Z,30.50
2022-07-25T09:06:16.831Z,30.60
2022-07-25T09:08:53.009Z,30.60
2022-07-25T09:11:27.908Z,30.80
2022-07-25T09:14:01.119Z,30.80
2022-07-25T09:16:34.298Z,30.90
2022-07-25T09:19:14.850Z,30.90
2022-07-25T09:21:44.720Z,30.90
2022-07-25T09:24:16.293Z,30.90
2022-07-25T09:26:45.981Z,30.90
2022-07-25T09:29:22.129Z,31.00
2022-07-25T09:31:50.472Z,31.10
2022-07-25T09:34:31.670Z,31.20
2022-07-25T09:37:00.828Z,31.20
2022-07-25T09:39:40.797Z,31.20
2022-07-25T09:42:20.821Z,31.30
2022-07-25T09:45:03.833Z,31.30
2022-07-25T09:47:33.170Z,31.30
2022-07-25T09:50:03.079Z,31.50
2022-07-25T09:52:31.880Z,31.60
2022-07-25T09:55:03.206Z,31.60
2022-07-25T09:57:31.658Z,31.80
2022-07-25T10:00:01.105Z,31.90
2022-07-25T10:02:40.919Z,31.90
2022-07-25T10:05:15.770Z,32.00
2022-07-25T10:07:47.517Z,32.00
2022-07-25T10:10:30.946Z,32.00
2022-07-25T10:13:09.986Z,32.10
2022-07-25T10:15:47.492Z,32.20
2022-07-25T10:18:17.342Z,32.30
2022-07-25T10:20:48.495Z,32.30
2022-07-25T10:23:22.083Z,32.40
2022-07-25T10:26:05.202Z,32.50
2022-07-25T10:28:42.493Z,32.50
2022-07-25T10:31:22.619Z,32.60
2022-07-25T10:33:53.499Z,32.70
2022-07-25T10:36:25.443Z,32.80
2022-07-25T10:38:58.476Z,33.00
2022-07-25T10:41:27.493Z,32.90
2022-07-25T10:44:01.565Z,32.90
2022-07-25T10:46:31.344Z,33.10
2022-07-25T10:49:01.879Z,33.20
2022-07-25T10:51:39.480Z,33.30
2022-07-25T10:54:17.541Z,33.40
2022-07-25T10:56:54.427Z,33.30
2022-07-25T10:59:34.324Z,33.40
2022-07-25T11:02:04.658Z,33.40
2022-07-25T11:04:38.151Z,33.60
2022-07-25T11:07:14.621Z,33.80
2022-07-25T11:09:57.227Z,33.80
2022-07-25T11:12:26.973Z,33.80
2022-07-25T11:15:01.762Z,33.90
2022-07-25T11:17:50.327Z,33.90
2022-07-25T11:20:23.782Z,33.90
2022-07-25T11:22:57.192Z,34.10
2022-07-25T11:25:26.044Z,34.10
2022-07-25T11:28:01.222Z,34.10
2022-07-25T11:30:31.416Z,34.30
2022-07-25T11:33:04.045Z,34.30
2022-07-25T11:35:34.013Z,34.30
2022-07-25T11:38:06.444Z,34.20
2022-07-25T11:40:43.997Z,34.30
2022-07-25T11:43:21.556Z,34.40
2022-07-25T11:45:58.586Z,34.50
2022-07-25T11:48:35.851Z,34.50
2022-07-25T11:51:18.707Z,34.60
2022-07-25T11:53:51.121Z,34.60
2022-07-25T11:56:41.321Z,34.70
2022-07-25T11:59:10.679Z,34.50
2022-07-25T12:01:41.684Z,34.60
2022-07-25T12:04:13.103Z,34.70
2022-07-25T12:06:42.351Z,34.70
2022-07-25T12:09:19.178Z,34.50
2022-07-25T12:11:48.868Z,34.60
2022-07-25T12:14:17.710Z,34.80
2022-07-25T12:16:46.089Z,34.60
2022-07-25T12:19:21.395Z,34.60
2022-07-25T12:21:49.569Z,34.50
2022-07-25T12:24:19.131Z,34.50
2022-07-25T12:26:47.364Z,34.40
2022-07-25T12:29:15.537Z,34.40
2022-07-25T12:31:44.079Z,34.40
2022-07-25T12:34:12.400Z,34.50
2022-07-25T12:36:45.273Z,34.60
2022-07-25T12:39:14.107Z,34.60
2022-07-25T12:41:43.937Z,34.60
2022-07-25T12:44:12.438Z,34.60
2022-07-25T12:46:47.253Z,34.80
2022-07-25T12:49:17.968Z,34.80
2022-07-25T12:51:46.370Z,34.80
2022-07-25T12:54:21.740Z,34.60
2022-07-25T12:56:52.604Z,34.90
2022-07-25T12:59:21.099Z,34.80
2022-07-25T13:01:49.316Z,34.90
2022-07-25T13:04:17.700Z,35.00
2022-07-25T13:06:46.812Z,34.80
2022-07-25T13:09:15.617Z,34.70
2022-07-25T13:11:44.068Z,34.70
2022-07-25T13:14:14.214Z,34.70
2022-07-25T13:16:42.760Z,34.70
2022-07-25T13:19:11.356Z,34.90
2022-07-25T13:21:40.184Z,34.90
2022-07-25T13:24:08.915Z,34.90
2022-07-25T13:26:38.050Z,34.80
2022-07-25T13:29:12.021Z,34.90
2022-07-25T13:31:43.366Z,34.90
2022-07-25T13:34:12.310Z,35.00
2022-07-25T13:36:41.039Z,35.20
2022-07-25T13:39:09.675Z,35.10
2022-07-25T13:41:38.352Z,35.30
2022-07-25T13:44:07.218Z,35.10
2022-07-25T13:46:50.255Z,35.30
2022-07-25T13:49:19.102Z,35.20
2022-07-25T13:51:47.955Z,35.30
2022-07-25T13:54:18.975Z,35.20
2022-07-25T13:56:55.616Z,35.30
2022-07-25T14:02:20.182Z,35.60
2022-07-25T14:04:48.717Z,35.90
2022-07-25T14:07:17.410Z,35.90
2022-07-25T14:09:46.905Z,35.60
2022-07-25T14:12:17.775Z,35.70
2022-07-25T14:14:47.304Z,36.10
2022-07-25T14:17:16.427Z,36.20
2022-07-25T14:19:47.970Z,36.10
2022-07-25T14:22:16.086Z,36.00
2022-07-25T14:24:44.216Z,36.00
2022-07-25T14:27:13.106Z,36.00
2022-07-25T14:29:41.201Z,36.20
2022-07-25T14:32:09.158Z,36.40
2022-07-25T14:34:38.158Z,36.20
2022-07-25T14:37:09.975Z,36.30
2022-07-25T14:39:38.005Z,36.30
2022-07-25T14:42:05.913Z,36.20
2022-07-25T14:44:34.870Z,36.30
2022-07-25T14:47:11.857Z,36.20
2022-07-25T14:49:41.203Z,36.10
2022-07-25T14:52:12.096Z,36.20
2022-07-25T14:54:40.334Z,36.20
2022-07-25T14:57:09.000Z,36.50
2022-07-25T14:59:37.112Z,36.60
2022-07-25T15:02:05.041Z,36.60
2022-07-25T15:04:33.346Z,36.50
2022-07-25T15:07:02.263Z,36.30
2022-07-25T15:09:32.033Z,36.60
2022-07-25T15:12:00.162Z,36.90
2022-07-25T15:14:28.327Z,37.10
2022-07-25T15:16:56.429Z,36.90
2022-07-25T15:19:24.572Z,37.10
2022-07-25T15:21:54.534Z,37.20
2022-07-25T15:24:27.101Z,37.20
2022-07-25T15:26:58.656Z,37.30
2022-07-25T15:29:28.008Z,36.90
2022-07-25T15:31:55.961Z,37.10
2022-07-25T15:34:23.805Z,37.30
2022-07-25T15:36:52.379Z,37.10
2022-07-25T15:39:20.163Z,36.90
2022-07-25T15:41:48.077Z,37.10
2022-07-25T15:44:17.866Z,37.30
2022-07-25T15:46:46.471Z,37.60
2022-07-25T15:49:15.825Z,36.90
2022-07-25T15:51:43.900Z,37.10
2022-07-25T15:54:11.786Z,37.00
2022-07-25T15:56:40.542Z,37.10
2022-07-25T15:59:08.749Z,37.40
2022-07-25T16:01:38.724Z,37.50
2022-07-25T16:04:06.659Z,37.30
2022-07-25T16:06:34.747Z,37.10
2022-07-25T16:09:03.251Z,37.30
2022-07-25T16:11:31.371Z,37.40
2022-07-25T16:13:59.333Z,37.60
2022-07-25T16:16:27.524Z,37.50
2022-07-25T16:18:58.074Z,37.90
2022-07-25T16:21:25.898Z,37.70
2022-07-25T16:23:53.718Z,38.10
2022-07-25T16:26:21.561Z,38.00
2022-07-25T16:28:57.822Z,38.10
2022-07-25T16:31:27.035Z,38.50
2022-07-25T16:33:56.530Z,38.50
2022-07-25T16:36:25.602Z,38.70
2022-07-25T16:38:53.765Z,38.40
2022-07-25T16:41:21.829Z,38.50
2022-07-25T16:43:49.696Z,38.40
2022-07-25T16:46:17.745Z,38.40
2022-07-25T16:48:45.542Z,38.40
2022-07-25T16:51:15.031Z,38.10
2022-07-25T16:53:42.763Z,38.20
2022-07-25T16:56:11.066Z,38.70
2022-07-25T16:58:38.841Z,38.60
2022-07-25T17:01:07.100Z,38.10
2022-07-25T17:03:35.134Z,38.10
2022-07-25T17:06:02.951Z,38.30
2022-07-25T17:08:33.018Z,38.20
2022-07-25T17:11:16.169Z,38.00
2022-07-25T17:13:44.605Z,38.10
2022-07-25T17:16:13.243Z,38.10
2022-07-25T17:18:41.470Z,38.10
2022-07-25T17:21:10.833Z,38.10
2022-07-25T17:23:40.160Z,37.80
2022-07-25T17:26:08.131Z,37.60
2022-07-25T17:28:36.601Z,37.50
2022-07-25T17:31:04.543Z,37.70
2022-07-25T17:33:32.537Z,37.40
2022-07-25T17:36:00.722Z,37.30
2022-07-25T17:38:34.572Z,37.30
2022-07-25T17:41:04.359Z,37.20
2022-07-25T17:43:32.409Z,36.90
2022-07-25T17:46:00.455Z,37.20
2022-07-25T17:48:28.633Z,37.30
2022-07-25T17:50:56.702Z,37.20
2022-07-25T17:53:24.422Z,36.50
2022-07-25T17:55:57.383Z,36.30
2022-07-25T17:58:26.771Z,35.90
2022-07-25T18:00:58.218Z,35.40
2022-07-25T18:03:29.225Z,34.00
2022-07-25T18:05:57.244Z,33.20
2022-07-25T18:08:25.214Z,32.60
2022-07-25T18:10:53.437Z,32.40
2022-07-25T18:13:22.295Z,32.10
2022-07-25T18:15:51.905Z,31.90
2022-07-25T18:18:20.925Z,31.70
2022-07-25T18:20:49.205Z,31.50
2022-07-25T18:23:17.146Z,31.30
2022-07-25T18:25:45.397Z,31.20
2022-07-25T18:28:13.535Z,31.00
2022-07-25T18:30:41.689Z,30.80
2022-07-25T18:33:12.172Z,30.70
2022-07-25T18:35:41.607Z,30.50
2022-07-25T18:38:11.779Z,30.50
2022-07-25T18:40:39.856Z,30.40
2022-07-25T18:43:09.046Z,30.40
2022-07-25T18:45:38.427Z,30.20
2022-07-25T18:48:08.199Z,30.10
2022-07-25T18:50:37.995Z,30.00
2022-07-25T18:53:07.902Z,29.90
2022-07-25T18:55:36.022Z,29.80
2022-07-25T18:58:04.668Z,29.60
2022-07-25T19:00:32.967Z,29.60
2022-07-25T19:03:01.033Z,29.50
2022-07-25T19:05:29.475Z,29.50
2022-07-25T19:08:01.230Z,29.40
2022-07-25T19:10:29.829Z,29.40
2022-07-25T19:12:58.313Z,29.40
2022-07-25T19:15:28.735Z,29.30
2022-07-25T19:18:00.021Z,29.30
2022-07-25T19:20:30.302Z,29.20
2022-07-25T19:23:00.315Z,29.10
2022-07-25T19:25:28.749Z,29.10
2022-07-25T19:27:56.974Z,29.20
2022-07-25T19:30:25.835Z,29.20
2022-07-25T19:32:54.066Z,29.10
2022-07-25T19:35:26.297Z,29.10
2022-07-25T19:37:54.751Z,29.10
2022-07-25T19:40:24.363Z,29.00
2022-07-25T19:42:53.030Z,29.00
2022-07-25T19:45:21.257Z,28.90
2022-07-25T19:47:49.858Z,28.80
2022-07-25T19:50:18.027Z,28.80
2022-07-25T19:52:47.058Z,28.80
2022-07-25T19:55:15.669Z,28.80
2022-07-25T19:57:45.373Z,28.70
2022-07-25T20:00:14.418Z,28.60
2022-07-25T20:02:43.501Z,28.60
2022-07-25T20:05:11.917Z,28.60
2022-07-25T20:07:40.634Z,28.60
2022-07-25T20:10:10.452Z,28.70
2022-07-25T20:12:39.304Z,28.60
2022-07-25T20:15:09.826Z,28.60
2022-07-25T20:17:37.896Z,28.50
2022-07-25T20:20:08.645Z,28.60
2022-07-25T20:22:40.109Z,28.50
2022-07-25T20:25:10.473Z,28.50
2022-07-25T20:27:39.719Z,28.50
2022-07-25T20:30:11.772Z,28.60
2022-07-25T20:32:40.018Z,28.70
2022-07-25T20:35:08.701Z,28.60
2022-07-25T20:37:37.083Z,28.50
2022-07-25T20:40:06.354Z,28.50
2022-07-25T20:42:37.549Z,28.50
2022-07-25T20:45:06.988Z,28.50
2022-07-25T20:47:36.746Z,28.50
2022-07-25T20:50:05.530Z,28.50
2022-07-25T20:52:35.235Z,28.40
2022-07-25T20:55:08.265Z,28.40
2022-07-25T20:57:36.468Z,28.40
2022-07-25T21:00:07.125Z,28.20
2022-07-25T21:02:36.647Z,28.10
2022-07-25T21:05:05.225Z,28.10
2022-07-25T21:07:33.360Z,28.00
2022-07-25T21:10:01.239Z,28.00
2022-07-25T21:12:32.558Z,28.00
2022-07-25T21:15:01.574Z,28.00
2022-07-25T21:17:29.548Z,27.90
2022-07-25T21:19:59.274Z,27.80
2022-07-25T21:22:27.480Z,27.70
2022-07-25T21:24:55.722Z,27.70
2022-07-25T21:27:24.121Z,27.60
2022-07-25T21:29:52.438Z,27.70
2022-07-25T21:32:48.070Z,27.60
2022-07-25T21:35:18.547Z,27.60
2022-07-25T21:37:46.705Z,27.60
2022-07-25T21:40:14.873Z,27.50
2022-07-25T21:42:43.140Z,27.50
2022-07-25T21:45:12.311Z,27.60
2022-07-25T21:47:40.578Z,27.60
2022-07-25T21:50:28.710Z,27.60
2022-07-25T21:52:58.610Z,27.50
2022-07-25T21:55:26.943Z,27.50
2022-07-25T21:57:55.201Z,27.50
2022-07-25T22:00:23.909Z,27.40
2022-07-25T22:02:51.833Z,27.40
2022-07-25T22:05:20.324Z,27.40
2022-07-25T22:07:48.811Z,27.40
2022-07-25T22:10:20.190Z,27.30
2022-07-25T22:12:48.429Z,27.30
2022-07-25T22:15:16.491Z,27.30
2022-07-25T22:17:48.361Z,27.30
2022-07-25T22:20:19.164Z,27.20
2022-07-25T22:22:47.651Z,27.20
2022-07-25T22:25:16.100Z,27.20
2022-07-25T22:27:45.738Z,27.20
2022-07-25T22:30:19.273Z,27.30
2022-07-25T22:32:48.989Z,27.30
2022-07-25T22:35:17.683Z,27.30
2022-07-25T22:37:46.371Z,27.30
2022-07-25T22:40:15.076Z,27.40
2022-07-25T22:42:44.608Z,27.40
2022-07-25T22:45:12.640Z,27.50
2022-07-25T22:47:40.908Z,27.50
2022-07-25T22:50:10.167Z,27.40
2022-07-25T22:52:38.211Z,27.40
2022-07-25T22:55:06.837Z,27.40
2022-07-25T22:57:37.248Z,27.50
2022-07-25T23:00:11.279Z,27.40
2022-07-25T23:02:40.671Z,27.40
2022-07-25T23:05:09.488Z,27.50
2022-07-25T23:07:37.810Z,27.40
2022-07-25T23:10:07.279Z,27.30
2022-07-25T23:12:35.518Z,27.40
2022-07-25T23:15:04.131Z,27.40
2022-07-25T23:17:33.658Z,27.40
2022-07-25T23:20:01.818Z,27.40
2022-07-25T23:22:30.380Z,27.30
2022-07-25T23:24:58.909Z,27.30
2022-07-25T23:27:27.403Z,27.30
2022-07-25T23:29:55.359Z,27.30
2022-07-25T23:32:23.398Z,27.30
2022-07-25T23:34:52.934Z,27.30
2022-07-25T23:37:21.079Z,27.30
2022-07-25T23:39:49.029Z,27.30
2022-07-25T23:42:17.118Z,27.30
2022-07-25T23:44:46.103Z,27.50
2022-07-25T23:47:15.114Z,27.80
2022-07-25T23:49:43.179Z,27.80
2022-07-25T23:52:12.639Z,28.00
2022-07-25T23:54:41.237Z,28.10
2022-07-25T23:57:09.521Z,28.10
2022-07-25T23:59:37.859Z,28.10
